createdAt,value
2022-11-25T00:03:01.606Z,100651.16
2022-11-25T00:13:23.090Z,100636.63
2022-11-25T00:23:44.726Z,100637.75
2022-11-25T00:34:07.294Z,100643.19
2022-11-25T00:44:40.472Z,100631.25
2022-11-25T00:55:03.480Z,100623.50
2022-11-25T01:05:25.003Z,100614.84
2022-11-25T01:15:46.486Z,100619.94
2022-11-25T01:26:11.331Z,100611.38
2022-11-25T01:36:33.450Z,100609.69
2022-11-25T01:46:54.780Z,100607.88
2022-11-25T01:57:28.338Z,100599.03
2022-11-25T02:07:53.112Z,100599.22
2022-11-25T02:18:14.987Z,100595.31
2022-11-25T02:28:37.238Z,100584.69
2022-11-25T02:39:01.525Z,100577.41
2022-11-25T02:49:23.000Z,100582.16
2022-11-25T02:59:44.456Z,100577.00
2022-11-25T03:10:06.347Z,100583.44
2022-11-25T03:20:27.832Z,100578.75
2022-11-25T03:30:49.295Z,100575.81
2022-11-25T03:41:10.746Z,100580.84
2022-11-25T03:51:32.271Z,100576.22
2022-11-25T04:01:53.849Z,100588.84
2022-11-25T04:12:34.028Z,100581.94
2022-11-25T04:22:55.498Z,100580.38
2022-11-25T04:33:16.959Z,100577.16
2022-11-25T04:43:38.428Z,100585.00
2022-11-25T04:53:59.878Z,100587.50
2022-11-25T05:04:21.336Z,100591.72
2022-11-25T05:14:43.039Z,100594.22
2022-11-25T05:25:07.858Z,100592.53
2022-11-25T05:35:29.310Z,100594.06
2022-11-25T05:45:50.846Z,100600.97
2022-11-25T05:56:12.502Z,100606.94
2022-11-25T06:06:34.138Z,100605.41
2022-11-25T06:16:55.631Z,100601.91
2022-11-25T06:27:17.114Z,100594.16
2022-11-25T06:37:39.049Z,100604.56
2022-11-25T06:48:00.533Z,100613.81
2022-11-25T06:58:35.405Z,100621.31
2022-11-25T07:08:57.949Z,100647.69
2022-11-25T07:19:19.637Z,100661.16
2022-11-25T07:40:22.617Z,100704.63
2022-11-25T07:50:44.285Z,100713.16
2022-11-25T08:01:07.500Z,100725.19
2022-11-25T08:11:31.236Z,100731.72
2022-11-25T08:21:52.698Z,100738.56
2022-11-25T08:32:14.257Z,100748.63
2022-11-25T08:42:35.814Z,100760.50
2022-11-25T08:52:57.633Z,100759.16
2022-11-25T09:03:19.193Z,100749.13
2022-11-25T09:13:40.933Z,100762.34
2022-11-25T09:24:02.755Z,100775.03
2022-11-25T09:34:24.431Z,100788.13
2022-11-25T09:45:16.705Z,100798.63
2022-11-25T09:55:45.215Z,100801.81
2022-11-25T10:06:19.073Z,100811.41
2022-11-25T10:17:10.179Z,100824.34
2022-11-25T10:27:43.787Z,100830.75
2022-11-25T10:38:17.410Z,100834.28
2022-11-25T10:49:09.695Z,100846.56
2022-11-25T10:59:39.600Z,100858.78
2022-11-25T11:10:22.600Z,100869.03
2022-11-25T11:20:50.297Z,100875.69
2022-11-25T11:31:20.763Z,100888.94
2022-11-25T11:42:27.538Z,100888.78
2022-11-25T11:53:05.986Z,100898.66
2022-11-25T12:03:29.509Z,100906.13
2022-11-25T12:14:10.097Z,100914.16
2022-11-25T12:24:49.429Z,100923.72
2022-11-25T12:35:10.813Z,100931.44
2022-11-25T12:45:33.415Z,100930.25
2022-11-25T12:55:59.471Z,100944.50
2022-11-25T13:06:39.457Z,100946.84
2022-11-25T13:17:01.611Z,100959.84
2022-11-25T13:27:53.552Z,100968.97
2022-11-25T13:38:30.235Z,100978.00
2022-11-25T13:48:51.820Z,100993.38
2022-11-25T13:59:13.891Z,101006.19
2022-11-25T14:10:07.576Z,101012.72
2022-11-25T14:20:47.828Z,101021.88
2022-11-25T14:31:22.531Z,101028.28
2022-11-25T14:41:53.080Z,101045.28
2022-11-25T14:52:22.215Z,101054.75
2022-11-25T15:03:02.007Z,101087.38
2022-11-25T15:13:29.706Z,101094.06
2022-11-25T15:23:51.328Z,101110.44
2022-11-25T15:34:14.623Z,101132.69
2022-11-25T15:44:44.845Z,101147.88
2022-11-25T15:55:31.556Z,101167.59
2022-11-25T16:05:57.611Z,101191.16
2022-11-25T16:16:29.932Z,101214.59
2022-11-25T16:27:20.696Z,101212.91
2022-11-25T16:48:24.555Z,101239.66
2022-11-25T16:58:46.126Z,101261.34
2022-11-25T17:09:08.419Z,101274.25
2022-11-25T17:19:30.338Z,101283.78
2022-11-25T17:29:52.524Z,101295.00
2022-11-25T17:40:14.658Z,101311.59
2022-11-25T17:50:37.310Z,101345.47
2022-11-25T18:00:58.900Z,101355.38
2022-11-25T18:11:22.821Z,101363.09
2022-11-25T18:21:44.385Z,101375.53
2022-11-25T18:32:05.881Z,101384.50
2022-11-25T18:42:27.787Z,101404.94
2022-11-25T18:52:49.518Z,101434.78
2022-11-25T19:03:17.893Z,101450.47
2022-11-25T19:13:39.441Z,101464.16
2022-11-25T19:24:00.910Z,101486.13
2022-11-25T19:34:45.835Z,101499.47
2022-11-25T19:45:08.188Z,101520.44
2022-11-25T19:55:30.001Z,101541.53
2022-11-25T20:05:54.399Z,101555.50
2022-11-25T20:16:25.413Z,101568.75
2022-11-25T20:26:48.860Z,101591.41
2022-11-25T20:37:13.668Z,101616.56
2022-11-25T20:47:39.614Z,101620.75
2022-11-25T20:58:20.146Z,101622.75
2022-11-25T21:08:45.277Z,101632.31
2022-11-25T21:19:06.807Z,101645.47
2022-11-25T21:29:29.843Z,101666.47
2022-11-25T21:39:51.346Z,101678.75
2022-11-25T21:50:20.295Z,101682.66
2022-11-25T22:00:41.768Z,101687.28
2022-11-25T22:11:03.461Z,101699.03
2022-11-25T22:21:25.148Z,101705.06
2022-11-25T22:31:48.285Z,101727.59
2022-11-25T22:42:29.649Z,101740.09
2022-11-25T22:52:53.081Z,101747.03
2022-11-25T23:03:21.184Z,101767.28
2022-11-25T23:13:42.711Z,101780.44
2022-11-25T23:24:11.803Z,101793.47
2022-11-25T23:34:34.682Z,101801.28
2022-11-25T23:44:56.194Z,101815.38
2022-11-25T23:55:23.691Z,101821.59
